< < Back
Terminal Aerodrome Forecast


Current Version              Previous Versions:   1  2  3  4  5  6  7  8  9  

Terminal Aerodrome Forecast

553
FTUS42 KMLB 251700
TAFDAB
TAF
KDAB 251720Z 2518/2618 32007KT P6SM FEW040
     FM252000 01008KT P6SM FEW050
     FM260000 00000KT P6SM SKC
     FM261500 01006KT P6SM FEW040=



Latest METAR

437
SAUS80 KWBC 252100 RRC
MTRDAB
METAR KDAB 252053Z 04011KT 10SM FEW045 24/14 A2995 RMK AO2 SLP142
T02440144 55006


USA.gov is the U.S. government's official web portal to all federal, state and local government web resources and services.